Pagrindinis puslapis
METAR-TAF:

METAR-TAF

Oro uostai :

Batajnica, Serbija

platuma: 44-56-07N, ilguma: 020-15-27E, Aukštis: 86 m

Dabartinis oras

Ataskaita buvo paskelbta 12 minutes, ne 18:30 UTC
Vėjas 4 kt iš Vakarų
Temperatūra 11°C
Drėgmė 62%
Slėgis 1024 hPa
Matomumas 10 km arba daugiau
nėra debesų žemiau 1500 m ir nėra kamuolinių lietaus debesų

METAR: LYBT 191830Z 27004KT CAVOK 11/04 Q1024 NOSIG

Laikas: 20:42 (18:42 UTC)

Prognozė

Ataskaita buvo paskelbta 1 valandą ir 42 minutes, ne 17:00 UTC
Prognozė galioja nuo 19 metu 18 UTC su 20 metu 18 UTC
Vėjas 6 kt iš Šiaurės/Šiaurės Vakarų
Matomumas 10 km arba daugiau
nėra debesų žemiau 1500 m ir nėra kamuolinių lietaus debesų

TAF: LYBT 191700Z 1918/2018 34006KT CAVOK TX18/2013Z TN04/2004Z

Orai ataskaitas ir orų prognozės (METAR, TAF).

turimą stotys yra geltonos ir raudonos taškus žemėlapyje.

Perkelti pele per norėdami pamatyti stoties vardą.

Tada spustelėkite, norėdami matyti oro stebėjimo ir prognozės.

Norėdami pakeisti žemėlapį: spustelėkite ant žalios mygtukų su juodo kryžiaus žemyn,; žalią mygtuką su brūkšneliu, jei norite nutolinti; arba žalių rodyklių gretimoms žemėlapius.


METAR-TAF: